createdAt,value
2019-02-05T05:20:01.411Z,22.40
2019-02-05T05:22:56.039Z,21.53
2019-02-05T05:25:50.954Z,26.00
2019-02-05T05:28:46.174Z,25.93
2019-02-05T05:31:41.084Z,24.23
2019-02-05T05:34:36.009Z,25.97
2019-02-05T05:37:30.856Z,24.37
2019-02-05T05:40:25.558Z,23.40
2019-02-05T05:43:20.332Z,23.40
2019-02-05T05:46:14.748Z,22.87
2019-02-05T05:49:09.026Z,24.70
2019-02-05T05:52:03.632Z,25.13
2019-02-05T05:55:00.174Z,26.00
2019-02-05T05:57:55.128Z,26.10
2019-02-05T06:00:49.726Z,25.27
2019-02-05T06:03:44.299Z,30.53
2019-02-05T14:51:28.869Z,21.07
2019-02-05T14:54:23.722Z,26.60
2019-02-05T14:57:18.180Z,23.87
2019-02-05T15:00:23.271Z,25.43
2019-02-05T15:03:17.730Z,25.67
2019-02-05T15:06:12.375Z,25.40
2019-02-05T15:09:07.980Z,27.85
2019-02-05T15:12:02.654Z,24.63
2019-02-05T15:14:57.316Z,27.20
2019-02-05T15:17:52.177Z,23.97
2019-02-05T15:20:49.150Z,24.47
2019-02-05T15:23:43.821Z,24.57
2019-02-05T15:26:38.824Z,23.03
2019-02-05T15:29:34.396Z,22.37
2019-02-05T15:32:51.137Z,23.10
2019-02-05T15:35:50.648Z,22.83
2019-02-05T15:38:45.263Z,21.27
2019-02-05T15:41:40.251Z,22.57
2019-02-05T15:44:36.133Z,24.07
2019-02-05T15:47:30.810Z,24.13
2019-02-05T15:50:25.680Z,23.30
2019-02-05T15:53:20.373Z,21.60
2019-02-05T15:56:15.271Z,22.93
2019-02-05T15:59:09.933Z,23.37
2019-02-05T16:02:06.720Z,23.20
2019-02-05T16:05:01.853Z,22.53
2019-02-05T16:07:56.848Z,22.60
2019-02-05T16:10:52.077Z,23.47
2019-02-05T16:13:47.028Z,22.30
2019-02-05T16:16:41.876Z,20.70
2019-02-05T16:19:37.671Z,22.30
2019-02-05T16:22:32.674Z,23.03
2019-02-05T16:25:27.728Z,23.77
2019-02-05T16:28:22.699Z,26.37
2019-02-05T16:31:17.376Z,21.13
2019-02-05T16:34:11.787Z,25.90
2019-02-05T16:37:06.579Z,22.67
2019-02-05T16:40:01.301Z,25.27
2019-02-05T16:42:56.215Z,23.00
2019-02-05T16:45:50.907Z,20.33
2019-02-05T16:48:46.187Z,24.70
2019-02-05T16:51:40.846Z,23.00
2019-02-05T16:54:35.665Z,27.00
2019-02-05T16:57:30.194Z,35.33
2019-02-05T17:00:28.462Z,40.60
2019-02-05T17:03:22.714Z,40.43
2019-02-05T17:06:17.852Z,42.10
2019-02-05T17:09:17.358Z,45.33
2019-02-05T17:12:12.269Z,34.60
2019-02-05T17:15:09.276Z,34.67
2019-02-05T17:18:03.951Z,35.40
2019-02-05T17:20:58.786Z,31.70
2019-02-05T17:23:53.629Z,27.33
2019-02-05T17:26:47.962Z,28.17
2019-02-05T17:29:42.685Z,27.00
2019-02-05T17:32:40.408Z,27.40
2019-02-05T17:35:35.459Z,23.93
2019-02-05T17:38:30.704Z,24.30
2019-02-05T17:41:25.036Z,24.83
2019-02-05T17:44:19.852Z,21.80
2019-02-05T17:47:14.825Z,20.93
2019-02-05T17:50:09.828Z,21.87
2019-02-05T17:53:04.618Z,22.37
2019-02-05T17:55:58.935Z,27.43
2019-02-05T17:58:53.545Z,27.07
2019-02-05T18:01:48.473Z,30.70
2019-02-05T18:04:43.161Z,31.10
2019-02-05T18:07:37.681Z,28.17
2019-02-05T18:10:32.616Z,24.93
2019-02-05T18:13:26.982Z,28.07
2019-02-05T18:16:21.925Z,30.00
2019-02-05T18:19:16.970Z,29.60
2019-02-05T18:22:11.939Z,32.63
2019-02-05T18:25:07.976Z,27.93
2019-02-05T18:28:02.869Z,28.40
2019-02-05T18:30:57.883Z,24.93
2019-02-05T18:33:52.481Z,22.10
2019-02-05T18:36:47.352Z,23.57
2019-02-05T18:39:41.869Z,24.70
2019-02-05T18:42:36.653Z,21.57
2019-02-05T18:45:31.166Z,21.90
2019-02-05T18:48:26.862Z,22.97
2019-02-05T18:51:21.699Z,22.97
2019-02-05T18:54:16.457Z,18.30
2019-02-05T18:57:11.188Z,16.90
2019-02-05T19:00:13.942Z,17.77
2019-02-05T19:03:15.542Z,17.90
2019-02-05T19:06:04.908Z,18.40
2019-02-05T19:09:00.627Z,20.20
2019-02-05T19:11:55.425Z,23.50
2019-02-05T19:14:51.930Z,24.03
2019-02-05T19:17:46.323Z,24.93
2019-02-05T19:20:41.120Z,34.00
2019-02-05T19:23:35.751Z,29.33
2019-02-05T19:26:38.803Z,28.83
2019-02-05T19:29:33.193Z,34.60
2019-02-05T19:32:29.101Z,29.60
2019-02-05T19:35:23.663Z,27.73
2019-02-05T19:38:18.331Z,31.73
2019-02-05T19:41:12.871Z,31.37
2019-02-05T19:44:07.899Z,35.67
2019-02-05T19:47:09.021Z,39.20
2019-02-05T19:50:03.987Z,44.87
2019-02-05T19:53:01.920Z,44.57
2019-02-05T19:55:56.151Z,49.03
2019-02-05T19:58:50.744Z,38.80
2019-02-05T20:01:45.444Z,35.13
2019-02-05T20:04:39.998Z,33.83
2019-02-05T20:07:36.459Z,32.33
2019-02-05T20:10:32.008Z,32.90
2019-02-05T20:13:26.730Z,29.90
2019-02-05T20:16:21.598Z,28.90
2019-02-05T20:19:16.125Z,25.17
2019-02-05T20:22:11.358Z,26.77
2019-02-05T20:25:06.730Z,25.67
2019-02-05T20:28:01.405Z,27.13
2019-02-05T20:30:56.050Z,27.43
2019-02-05T20:33:50.907Z,26.17
2019-02-05T20:36:46.294Z,26.23
2019-02-05T20:39:44.377Z,24.10
2019-02-05T20:42:39.470Z,20.90
2019-02-05T20:45:35.208Z,19.87
2019-02-05T20:48:30.477Z,19.43
2019-02-05T20:51:25.085Z,18.27
2019-02-05T20:54:20.025Z,19.53
2019-02-05T20:57:20.700Z,18.97
2019-02-05T21:00:19.405Z,18.23
2019-02-05T21:03:13.821Z,17.57
2019-02-05T21:06:08.389Z,18.23
2019-02-05T21:09:02.759Z,18.23
2019-02-05T21:11:57.744Z,16.57
2019-02-05T21:14:52.619Z,18.27
2019-02-05T21:17:47.320Z,17.90
2019-02-05T21:20:42.264Z,16.07
2019-02-05T21:23:38.153Z,16.87
2019-02-05T21:26:33.211Z,18.20
2019-02-05T21:29:28.030Z,15.30
2019-02-05T21:32:22.465Z,15.97
2019-02-05T21:35:17.269Z,16.93
2019-02-05T21:38:11.960Z,15.90
2019-02-05T21:41:07.140Z,17.30
2019-02-05T21:44:01.793Z,16.40
2019-02-05T21:46:56.161Z,19.13
2019-02-05T21:49:50.638Z,17.10
2019-02-05T21:52:48.548Z,17.23
2019-02-05T21:55:42.100Z,19.13
2019-02-05T21:58:37.218Z,19.50
2019-02-05T22:01:34.509Z,20.50
2019-02-05T22:04:29.382Z,21.87
2019-02-05T22:07:23.761Z,22.30
2019-02-05T22:10:18.709Z,27.23
2019-02-05T22:13:13.257Z,26.27
2019-02-05T22:16:07.732Z,24.53
2019-02-05T22:19:02.531Z,22.70
2019-02-05T22:21:57.468Z,24.70
2019-02-05T22:24:52.020Z,24.53
2019-02-05T22:27:46.648Z,25.60
2019-02-05T22:30:41.649Z,25.70
